Time;durP1;ratioP1;P1;durP2;ratioP2;P2;SDS_P1;SDS_P2;PMS_P1;PMS_P2;Temp;Humidity;BMP_temperature;BMP_pressure;BME280_temperature;BME280_humidity;BME280_pressure;Samples;Min_cycle;Max_cycle;Signal;HPM_P1;HPM_P2
2022/08/25 00:01:36;;;;;;;9.40;3.70;;;;;;;21.23;86.19;96769.22;4942307;28;20228;-74
2022/08/25 00:04:06;;;;;;;10.25;3.60;;;;;;;21.15;87.93;96767.25;4969615;28;20050;-74
2022/08/25 00:06:31;;;;;;;8.25;3.40;;;;;;;21.12;88.33;96770.59;4968793;28;20055;-74
2022/08/25 00:08:58;;;;;;;9.93;3.38;;;;;;;21.20;87.03;96761.69;4969665;28;20112;-74
2022/08/25 00:11:26;;;;;;;9.90;3.45;;;;;;;21.06;88.38;96771.81;4968123;28;20046;-74
2022/08/25 00:13:59;;;;;;;7.03;3.67;;;;;;;20.97;89.66;96762.78;4967594;28;20034;-74
2022/08/25 00:16:28;;;;;;;8.63;3.60;;;;;;;20.95;90.03;96767.72;4967080;28;20133;-74
2022/08/25 00:18:58;;;;;;;10.50;3.85;;;;;;;20.87;90.74;96761.09;4969875;28;20461;-74
2022/08/25 00:21:23;;;;;;;8.30;3.70;;;;;;;20.85;89.23;96774.19;4969957;28;20800;-74
2022/08/25 00:23:49;;;;;;;10.43;3.78;;;;;;;20.84;89.87;96765.22;4970482;28;20109;-74
2022/08/25 00:26:16;;;;;;;9.07;3.65;;;;;;;20.74;91.49;96762.75;4968968;28;20422;-74
2022/08/25 00:28:43;;;;;;;7.25;3.70;;;;;;;20.68;91.81;96763.97;4969386;28;20148;-74
2022/08/25 00:31:15;;;;;;;11.55;4.07;;;;;;;20.69;92.22;96762.84;4968702;28;20047;-74
2022/08/25 00:33:43;;;;;;;14.65;3.80;;;;;;;20.70;91.43;96758.22;4967999;28;20255;-74
2022/08/25 00:36:11;;;;;;;8.68;3.90;;;;;;;20.70;91.46;96767.19;4969850;28;20614;-74
2022/08/25 00:38:41;;;;;;;7.32;3.70;;;;;;;20.66;91.18;96758.03;4966157;28;20125;-74
2022/08/25 00:41:10;;;;;;;10.55;4.03;;;;;;;20.64;93.19;96762.97;4982876;28;20120;-74
2022/08/25 00:43:46;;;;;;;9.63;4.18;;;;;;;20.53;94.58;96767.00;4966388;28;20117;-74
2022/08/25 00:46:16;;;;;;;9.25;4.07;;;;;;;20.52;92.93;96770.84;4969125;28;20096;-74
2022/08/25 00:48:45;;;;;;;11.77;3.95;;;;;;;20.42;95.46;96780.00;4967538;28;20300;-74
2022/08/25 00:51:17;;;;;;;9.63;3.67;;;;;;;20.30;96.47;96772.34;4969099;28;20117;-74
2022/08/25 00:53:44;;;;;;;11.35;4.10;;;;;;;20.26;95.78;96774.06;4969294;28;20049;-74
2022/08/25 00:56:12;;;;;;;8.20;4.03;;;;;;;20.29;97.86;96775.38;4966928;28;20042;-74
2022/08/25 00:58:39;;;;;;;6.40;3.83;;;;;;;20.34;96.51;96769.03;4968032;28;20042;-74
2022/08/25 01:01:08;;;;;;;11.23;4.43;;;;;;;20.20;97.32;96772.56;4941908;28;20302;-74
2022/08/25 01:03:34;;;;;;;9.70;4.38;;;;;;;20.10;98.52;96775.47;4965500;28;20441;-74
2022/08/25 01:06:02;;;;;;;7.82;4.20;;;;;;;20.09;97.21;96770.34;4967622;28;20031;-74
2022/08/25 01:08:31;;;;;;;10.07;4.65;;;;;;;19.98;100.00;96772.44;4965360;28;20073;-74
2022/08/25 01:11:00;;;;;;;9.02;3.97;;;;;;;19.94;100.00;96760.59;4967484;28;20582;-74
2022/08/25 01:13:36;;;;;;;9.68;4.00;;;;;;;19.83;100.00;96761.88;4967077;28;20074;-74
2022/08/25 01:16:02;;;;;;;12.43;4.20;;;;;;;19.80;100.00;96770.63;4970976;28;20038;-74
2022/08/25 01:18:28;;;;;;;7.85;4.57;;;;;;;19.75;100.00;96775.03;4967223;28;20033;-74
2022/08/25 01:20:58;;;;;;;11.52;4.43;;;;;;;19.81;100.00;96774.94;4969407;28;20600;-74
2022/08/25 01:23:25;;;;;;;7.83;4.30;;;;;;;19.73;100.00;96777.25;4964899;28;20046;-74
2022/08/25 01:25:53;;;;;;;10.13;5.28;;;;;;;19.79;100.00;96779.88;4968990;28;20066;-74
2022/08/25 01:28:20;;;;;;;9.40;4.88;;;;;;;19.83;100.00;96772.72;4964738;28;20390;-74
2022/08/25 01:30:46;;;;;;;9.02;4.72;;;;;;;19.88;100.00;96759.88;4969000;28;20042;-74
2022/08/25 01:33:12;;;;;;;11.45;4.57;;;;;;;19.92;100.00;96765.50;4966081;28;20454;-74
2022/08/25 01:35:39;;;;;;;9.65;4.53;;;;;;;19.88;100.00;96761.78;4967579;28;20046;-74
2022/08/25 01:38:07;;;;;;;11.35;4.97;;;;;;;19.86;100.00;96767.53;4969034;28;20114;-74
2022/08/25 01:40:34;;;;;;;10.25;4.72;;;;;;;19.81;100.00;96764.09;4969302;28;20173;-74
2022/08/25 01:43:06;;;;;;;12.02;5.30;;;;;;;19.81;100.00;96767.59;4968810;28;20125;-74
2022/08/25 01:45:33;;;;;;;11.82;5.00;;;;;;;19.82;100.00;96765.69;4968457;28;20082;-74
2022/08/25 01:47:59;;;;;;;11.60;5.00;;;;;;;19.83;100.00;96762.66;4969794;28;20050;-74
2022/08/25 01:50:25;;;;;;;10.18;5.20;;;;;;;19.80;100.00;96765.19;4966232;28;20047;-74
2022/08/25 01:52:59;;;;;;;9.68;5.22;;;;;;;19.81;100.00;96766.81;4966440;28;20386;-74
2022/08/25 01:55:25;;;;;;;10.27;5.10;;;;;;;19.77;100.00;96763.91;4969721;28;20027;-74
2022/08/25 01:57:51;;;;;;;12.82;5.35;;;;;;;19.79;100.00;96766.31;4967615;28;20026;-74
2022/08/25 02:00:18;;;;;;;7.97;4.45;;;;;;;19.72;100.00;96775.66;4941371;28;20093;-73
2022/08/25 02:02:45;;;;;;;8.63;4.93;;;;;;;19.62;100.00;96769.59;4963914;28;20034;-74
2022/08/25 02:05:13;;;;;;;10.00;5.55;;;;;;;19.61;100.00;96776.94;4967742;28;20054;-74
2022/08/25 02:07:41;;;;;;;11.73;5.43;;;;;;;19.54;100.00;96775.69;4966895;28;20092;-74
2022/08/25 02:10:07;;;;;;;12.63;5.43;;;;;;;19.52;100.00;96770.53;4965555;28;20386;-74
2022/08/25 02:12:34;;;;;;;13.52;7.03;;;;;;;19.52;100.00;96775.97;4968422;28;20525;-74
2022/08/25 02:15:00;;;;;;;9.20;5.18;;;;;;;19.50;100.00;96778.19;4967038;28;20034;-74
2022/08/25 02:17:27;;;;;;;10.30;5.60;;;;;;;19.43;100.00;96766.91;4966305;28;20036;-74
2022/08/25 02:19:54;;;;;;;10.15;5.38;;;;;;;19.40;100.00;96764.78;4968727;28;20445;-75
2022/08/25 02:22:20;;;;;;;15.60;5.78;;;;;;;19.40;100.00;96772.94;4967649;28;20038;-74
2022/08/25 02:24:46;;;;;;;11.35;5.53;;;;;;;19.17;100.00;96748.34;4972599;28;20042;-74
2022/08/25 02:27:12;;;;;;;12.77;5.60;;;;;;;19.15;100.00;96768.72;4971680;28;20049;-74
2022/08/25 02:29:38;;;;;;;10.95;5.32;;;;;;;19.04;100.00;96764.56;4972251;28;20042;-74
2022/08/25 02:32:04;;;;;;;10.18;5.22;;;;;;;18.99;100.00;96779.00;4970534;28;20046;-74
2022/08/25 02:34:30;;;;;;;12.18;5.70;;;;;;;18.93;100.00;96778.28;4973701;28;20065;-74
2022/08/25 02:36:55;;;;;;;12.32;5.82;;;;;;;18.84;100.00;96779.25;4970721;28;20573;-74
2022/08/25 02:39:21;;;;;;;9.07;5.50;;;;;;;18.80;100.00;96783.63;4971136;28;20749;-74
2022/08/25 02:41:46;;;;;;;9.13;5.57;;;;;;;18.78;100.00;96781.22;4973111;28;20096;-74
2022/08/25 02:44:12;;;;;;;9.68;5.85;;;;;;;18.76;100.00;96782.59;4971578;28;20116;-74
2022/08/25 02:46:37;;;;;;;13.02;5.47;;;;;;;18.73;100.00;96775.03;4969970;28;20473;-74
2022/08/25 02:49:04;;;;;;;9.77;5.78;;;;;;;18.72;100.00;96776.16;4972029;28;20041;-74
2022/08/25 02:51:30;;;;;;;13.95;5.93;;;;;;;18.65;100.00;96777.31;4988084;28;20539;-74
2022/08/25 02:53:58;;;;;;;14.20;6.25;;;;;;;18.71;100.00;96786.19;4970961;28;20046;-74
2022/08/25 02:56:24;;;;;;;14.40;5.82;;;;;;;18.72;100.00;96782.38;4972945;28;20042;-74
2022/08/25 02:58:50;;;;;;;14.32;5.70;;;;;;;18.71;100.00;96782.66;4970895;28;20560;-74
2022/08/25 03:01:16;;;;;;;11.95;6.68;;;;;;;18.69;100.00;96774.84;4944126;28;20050;-74
2022/08/25 03:03:44;;;;;;;11.38;5.78;;;;;;;18.61;100.00;96773.56;4969787;28;20262;-74
2022/08/25 03:06:12;;;;;;;16.35;6.35;;;;;;;18.55;100.00;96772.00;4970490;28;20461;-74
2022/08/25 03:08:38;;;;;;;13.57;6.05;;;;;;;18.56;100.00;96765.47;4970642;28;20046;-74
2022/08/25 03:11:05;;;;;;;13.45;6.28;;;;;;;18.56;100.00;96762.78;4970189;28;20386;-74
2022/08/25 03:13:31;;;;;;;14.50;6.13;;;;;;;18.65;100.00;96768.34;4970651;28;20073;-74
2022/08/25 03:15:59;;;;;;;20.48;7.50;;;;;;;18.64;100.00;96756.69;4971056;28;20046;-74
2022/08/25 03:18:25;;;;;;;11.38;5.72;;;;;;;18.67;100.00;96760.75;4968830;28;20437;-74
2022/08/25 03:20:50;;;;;;;16.80;6.57;;;;;;;18.65;100.00;96749.38;4975642;28;20116;-74
2022/08/25 03:23:16;;;;;;;13.20;6.40;;;;;;;18.61;100.00;96740.22;4966686;28;20616;-74
2022/08/25 03:28:26;;;;;;;11.32;6.20;;;;;;;18.64;100.00;96734.22;4968015;28;20417;-74
2022/08/25 03:30:52;;;;;;;13.63;6.57;;;;;;;18.64;100.00;96735.00;4968853;28;20039;-74
2022/08/25 03:33:18;;;;;;;14.90;6.70;;;;;;;18.57;100.00;96737.28;4982401;28;20405;-74
2022/08/25 03:35:44;;;;;;;13.52;6.57;;;;;;;18.57;100.00;96733.78;4969507;28;20532;-74
2022/08/25 03:38:10;;;;;;;10.43;6.22;;;;;;;18.60;100.00;96725.06;4971614;28;20054;-74
2022/08/25 03:40:37;;;;;;;15.20;7.05;;;;;;;18.64;100.00;96731.50;4969251;28;20382;-74
2022/08/25 03:43:03;;;;;;;13.35;6.90;;;;;;;18.62;100.00;96731.81;4968749;28;20472;-74
2022/08/25 03:45:29;;;;;;;11.77;7.00;;;;;;;18.59;100.00;96726.94;4968303;28;20042;-74
2022/08/25 03:47:55;;;;;;;11.60;6.65;;;;;;;18.55;100.00;96725.94;4968423;28;20704;-74
2022/08/25 03:50:22;;;;;;;12.95;6.35;;;;;;;18.53;100.00;96728.16;4968748;28;20038;-74
2022/08/25 03:52:55;;;;;;;11.05;6.30;;;;;;;18.53;100.00;96728.16;4969203;28;20258;-74
2022/08/25 03:55:22;;;;;;;12.32;6.80;;;;;;;18.45;100.00;96714.44;4971290;28;20074;-74
2022/08/25 03:57:48;;;;;;;15.63;7.22;;;;;;;18.55;100.00;96727.84;4968007;28;20037;-74
2022/08/25 04:00:14;;;;;;;12.32;6.70;;;;;;;18.51;100.00;96730.31;4962009;28;20245;-74
2022/08/25 04:02:40;;;;;;;11.15;6.70;;;;;;;18.47;100.00;96732.00;4965227;28;20035;-74
2022/08/25 04:05:07;;;;;;;15.43;6.65;;;;;;;18.46;100.00;96735.81;4970259;28;20402;-74
2022/08/25 04:07:32;;;;;;;12.30;6.97;;;;;;;18.49;100.00;96731.72;4967858;28;20132;-74
2022/08/25 04:09:58;;;;;;;15.57;7.35;;;;;;;18.41;100.00;96721.53;4969819;28;20042;-74
2022/08/25 04:12:23;;;;;;;13.65;7.68;;;;;;;18.37;100.00;96714.00;4968284;28;20081;-74
2022/08/25 04:14:49;;;;;;;11.90;7.40;;;;;;;18.31;100.00;96712.47;4969767;28;20066;-74
2022/08/25 04:17:15;;;;;;;12.60;7.18;;;;;;;18.24;100.00;96713.91;4968571;28;20043;-74
2022/08/25 04:19:40;;;;;;;12.48;7.38;;;;;;;18.25;100.00;96710.09;4969460;28;20070;-74
2022/08/25 04:22:06;;;;;;;15.30;7.07;;;;;;;18.26;100.00;96707.09;4966955;28;20363;-74
2022/08/25 04:24:31;;;;;;;14.30;7.30;;;;;;;18.25;100.00;96715.53;4969973;28;20511;-74
2022/08/25 04:26:57;;;;;;;12.40;7.05;;;;;;;18.24;100.00;96714.72;4968800;28;20049;-74
2022/08/25 04:29:24;;;;;;;13.30;7.50;;;;;;;18.26;100.00;96714.41;4969920;28;20053;-74
2022/08/25 04:31:50;;;;;;;12.73;7.50;;;;;;;18.25;100.00;96716.31;4966202;28;20614;-74
2022/08/25 04:34:17;;;;;;;14.32;7.40;;;;;;;18.26;100.00;96712.50;4966813;28;20065;-74
2022/08/25 04:36:43;;;;;;;15.15;7.47;;;;;;;18.19;100.00;96705.84;4965974;28;20299;-74
2022/08/25 04:39:09;;;;;;;15.73;7.60;;;;;;;18.18;100.00;96720.47;4966511;28;20141;-74
2022/08/25 04:41:34;;;;;;;15.90;7.78;;;;;;;18.12;100.00;96725.16;4970033;28;20726;-74
2022/08/25 04:44:01;;;;;;;11.98;7.07;;;;;;;18.07;100.00;96725.22;4968774;28;20034;-74
2022/08/25 04:46:31;;;;;;;13.75;7.72;;;;;;;18.04;100.00;96731.22;4968629;28;20061;-74
2022/08/25 04:48:58;;;;;;;16.08;8.05;;;;;;;18.02;100.00;96722.56;4969366;28;20134;-74
2022/08/25 04:51:46;;;;;;;11.60;7.40;;;;;;;17.94;100.00;96718.59;4969616;28;20081;-74
2022/08/25 04:54:20;;;;;;;14.50;7.43;;;;;;;18.02;100.00;96723.38;4967818;28;20050;-74
2022/08/25 04:56:47;;;;;;;18.58;8.18;;;;;;;18.02;100.00;96717.16;4968702;28;20587;-74
2022/08/25 04:59:14;;;;;;;17.17;7.50;;;;;;;18.00;100.00;96713.94;4969424;28;20160;-74
2022/08/25 05:01:42;;;;;;;14.00;7.95;;;;;;;18.04;100.00;96718.47;4941991;28;20130;-74
2022/08/25 05:04:09;;;;;;;19.17;8.15;;;;;;;18.03;100.00;96713.34;4966797;28;20660;-74
2022/08/25 05:06:36;;;;;;;16.40;8.45;;;;;;;18.15;100.00;96721.06;4967071;28;20263;-74
2022/08/25 05:09:02;;;;;;;18.60;7.75;;;;;;;18.14;100.00;96719.47;4988373;28;20039;-75
2022/08/25 05:11:28;;;;;;;18.60;7.70;;;;;;;18.18;100.00;96725.91;4965396;28;20538;-74
2022/08/25 05:13:55;;;;;;;17.30;8.25;;;;;;;18.22;100.00;96721.53;4966702;28;20041;-74
2022/08/25 05:16:23;;;;;;;17.08;8.05;;;;;;;18.23;100.00;96723.94;4969027;28;20477;-74
2022/08/25 05:18:49;;;;;;;17.73;8.50;;;;;;;18.28;100.00;96715.72;4971121;28;20129;-74
2022/08/25 05:21:21;;;;;;;16.88;8.23;;;;;;;18.33;100.00;96715.66;4966776;28;20046;-74
2022/08/25 05:23:47;;;;;;;15.15;7.65;;;;;;;18.36;100.00;96711.56;4969935;28;20125;-74
2022/08/25 05:26:18;;;;;;;16.75;7.72;;;;;;;18.40;100.00;96715.31;4965547;28;20373;-74
2022/08/25 05:28:43;;;;;;;14.10;8.75;;;;;;;18.47;100.00;96723.88;4986716;28;20373;-74
2022/08/25 05:31:11;;;;;;;17.02;8.23;;;;;;;18.51;100.00;96726.81;4969054;28;20670;-74
2022/08/25 05:33:37;;;;;;;17.60;8.40;;;;;;;18.54;100.00;96723.53;4968884;28;20159;-74
2022/08/25 05:36:04;;;;;;;15.98;7.85;;;;;;;18.54;100.00;96721.63;4966634;28;20042;-74
2022/08/25 05:38:30;;;;;;;19.73;8.75;;;;;;;18.55;100.00;96725.94;4966995;28;20042;-74
2022/08/25 05:41:00;;;;;;;16.42;8.43;;;;;;;18.57;100.00;96726.44;4969636;28;20034;-74
2022/08/25 05:43:27;;;;;;;19.67;8.40;;;;;;;18.57;100.00;96726.44;4981943;28;20096;-74
2022/08/25 05:45:54;;;;;;;19.52;8.65;;;;;;;18.60;100.00;96712.31;4969068;28;20049;-74
2022/08/25 05:48:20;;;;;;;19.98;8.77;;;;;;;18.68;100.00;96710.06;4966390;28;20050;-74
2022/08/25 05:50:59;;;;;;;23.88;8.88;;;;;;;18.73;100.00;96715.41;4982502;28;20181;-74
2022/08/25 05:53:27;;;;;;;16.88;8.65;;;;;;;18.80;100.00;96705.81;4966376;28;20049;-74
2022/08/25 05:55:54;;;;;;;17.13;9.38;;;;;;;18.86;100.00;96706.53;4972259;28;20042;-75
2022/08/25 05:58:21;;;;;;;17.92;8.70;;;;;;;18.92;100.00;96699.94;4974748;28;20043;-74
2022/08/25 06:00:48;;;;;;;20.88;8.60;;;;;;;18.95;100.00;96701.25;4947731;28;20651;-74
2022/08/25 06:03:14;;;;;;;16.95;8.73;;;;;;;18.99;100.00;96696.84;4969494;28;20096;-74
2022/08/25 06:05:39;;;;;;;28.60;11.50;;;;;;;19.11;100.00;96703.41;4973765;28;20413;-74
2022/08/25 06:08:05;;;;;;;22.83;11.55;;;;;;;19.17;100.00;96693.28;4972815;28;20124;-74
2022/08/25 06:10:31;;;;;;;18.50;9.00;;;;;;;19.21;100.00;96695.09;4975855;28;20876;-74
2022/08/25 06:12:56;;;;;;;18.33;10.38;;;;;;;19.29;100.00;96703.66;4976541;28;20077;-74
2022/08/25 06:15:24;;;;;;;20.52;11.13;;;;;;;19.38;100.00;96708.13;4976121;28;20446;-74
2022/08/25 06:17:51;;;;;;;19.83;10.10;;;;;;;19.44;100.00;96692.53;4970543;28;20049;-74
2022/08/25 06:20:22;;;;;;;21.33;10.40;;;;;;;19.55;100.00;96693.16;4972743;28;20517;-74
2022/08/25 06:22:49;;;;;;;17.73;10.13;;;;;;;19.58;100.00;96698.00;4971475;28;20353;-74
2022/08/25 06:25:17;;;;;;;21.40;11.07;;;;;;;19.67;100.00;96705.16;4973724;28;20031;-74
2022/08/25 06:27:44;;;;;;;20.27;10.32;;;;;;;19.78;100.00;96702.25;4971936;28;20332;-74
2022/08/25 06:30:13;;;;;;;22.33;11.05;;;;;;;19.88;100.00;96699.34;4974777;28;20199;-75
2022/08/25 06:32:40;;;;;;;23.88;10.98;;;;;;;19.99;100.00;96706.16;4990449;28;20069;-74
2022/08/25 06:35:09;;;;;;;21.90;10.43;;;;;;;20.09;100.00;96705.97;4975601;28;20034;-74
2022/08/25 06:37:35;;;;;;;27.98;11.40;;;;;;;20.17;100.00;96705.25;4989499;28;20041;-74
2022/08/25 06:40:02;;;;;;;19.80;10.80;;;;;;;20.23;100.00;96705.94;4973469;28;20147;-74
2022/08/25 06:42:28;;;;;;;22.35;9.80;;;;;;;20.27;100.00;96707.75;4971775;28;20046;-74
2022/08/25 06:44:53;;;;;;;22.77;10.63;;;;;;;20.33;100.00;96705.72;4975176;28;20389;-74
2022/08/25 06:47:19;;;;;;;18.58;10.80;;;;;;;20.36;100.00;96701.59;4972432;28;20035;-74
2022/08/25 06:49:45;;;;;;;26.67;10.77;;;;;;;20.41;100.00;96709.66;4973764;28;20038;-74
2022/08/25 06:52:11;;;;;;;19.23;10.13;;;;;;;20.48;100.00;96710.06;4970648;28;20044;-74
2022/08/25 06:54:37;;;;;;;22.45;11.25;;;;;;;20.54;100.00;96708.81;4976777;28;20050;-74
2022/08/25 06:57:04;;;;;;;20.52;11.40;;;;;;;20.60;100.00;96707.59;4989503;28;20105;-74
2022/08/25 06:59:30;;;;;;;25.95;11.35;;;;;;;20.66;100.00;96706.38;4975666;28;20044;-74
2022/08/25 07:01:56;;;;;;;19.25;11.10;;;;;;;20.70;100.00;96712.81;4943232;28;20054;-74
2022/08/25 07:04:21;;;;;;;25.20;11.32;;;;;;;20.75;100.00;96701.00;4977192;28;20050;-74
2022/08/25 07:06:47;;;;;;;26.30;11.55;;;;;;;20.84;100.00;96707.31;4971448;28;20073;-74
2022/08/25 07:09:13;;;;;;;28.35;12.45;;;;;;;20.95;100.00;96713.34;4968508;28;20121;-74
2022/08/25 07:11:40;;;;;;;18.23;10.40;;;;;;;21.01;100.00;96703.91;4968806;28;20109;-75
2022/08/25 07:14:08;;;;;;;22.80;10.90;;;;;;;21.14;100.00;96701.13;4974949;28;20038;-74
2022/08/25 07:16:34;;;;;;;19.55;11.05;;;;;;;21.26;100.00;96689.69;4970539;28;20105;-74
2022/08/25 07:19:00;;;;;;;22.83;11.63;;;;;;;21.32;100.00;96690.38;4974002;28;20039;-74
2022/08/25 07:21:28;;;;;;;19.35;11.25;;;;;;;21.42;100.00;96696.38;4967735;28;20306;-75
2022/08/25 07:23:54;;;;;;;22.27;10.23;;;;;;;21.47;100.00;96697.34;4971858;28;20429;-75
2022/08/25 07:26:23;;;;;;;19.23;10.15;;;;;;;21.47;100.00;96695.44;4970428;28;20406;-75
2022/08/25 07:28:50;;;;;;;23.15;10.68;;;;;;;21.51;100.00;96696.44;4972656;28;20030;-74
2022/08/25 07:31:15;;;;;;;20.08;9.80;;;;;;;21.53;100.00;96693.38;4970097;28;20092;-74
2022/08/25 07:35:14;;;;;;;20.00;10.90;;;;;;;21.62;100.00;96694.22;4969346;28;20494;-74
2022/08/25 07:36:27;;;;;;;22.90;9.77;;;;;;;21.65;100.00;96685.44;4969957;28;20111;-74
2022/08/25 07:38:52;;;;;;;17.17;10.25;;;;;;;21.79;100.00;96697.03;4972301;28;20166;-75
2022/08/25 07:41:18;;;;;;;15.05;9.02;;;;;;;21.78;100.00;96697.34;4971624;28;20046;-74
2022/08/25 07:43:43;;;;;;;19.40;10.65;;;;;;;21.82;100.00;96699.13;4970709;28;20287;-74
2022/08/25 07:46:09;;;;;;;19.98;9.55;;;;;;;21.80;100.00;96698.63;4966403;28;20315;-74
2022/08/25 07:48:35;;;;;;;21.50;9.43;;;;;;;21.88;100.00;96699.78;4972853;28;20383;-75
2022/08/25 07:51:10;;;;;;;20.02;10.40;;;;;;;21.98;100.00;96702.22;4971513;28;20053;-74
2022/08/25 07:53:36;;;;;;;19.17;9.68;;;;;;;21.99;100.00;96709.28;4971083;28;20104;-75
2022/08/25 07:56:02;;;;;;;18.67;10.45;;;;;;;22.18;100.00;96704.41;4969749;28;20463;-74
2022/08/25 07:58:27;;;;;;;21.55;10.13;;;;;;;22.25;100.00;96701.19;4967641;28;20378;-74
2022/08/25 08:00:53;;;;;;;25.50;10.18;;;;;;;22.29;100.00;96701.38;4944493;28;20830;-74
2022/08/25 08:03:22;;;;;;;17.60;9.75;;;;;;;22.43;100.00;96694.66;4964319;28;20051;-74
2022/08/25 08:05:48;;;;;;;20.30;8.77;;;;;;;22.47;100.00;96703.78;4967698;28;20745;-74
2022/08/25 08:08:13;;;;;;;21.27;8.90;;;;;;;22.52;100.00;96697.41;4966799;28;20042;-75
2022/08/25 08:10:39;;;;;;;17.58;8.13;;;;;;;22.54;100.00;96700.59;4970975;28;20122;-74
2022/08/25 08:13:05;;;;;;;14.25;9.00;;;;;;;22.61;100.00;96698.19;4966468;28;20082;-74
2022/08/25 08:15:30;;;;;;;21.90;9.05;;;;;;;22.77;100.00;96701.25;4968408;28;20121;-75
2022/08/25 08:17:57;;;;;;;16.05;9.38;;;;;;;22.89;100.00;96701.47;4966468;28;20046;-74
2022/08/25 08:20:22;;;;;;;16.65;9.50;;;;;;;22.82;100.00;96701.09;4968151;28;20068;-75
2022/08/25 08:22:48;;;;;;;26.83;9.70;;;;;;;23.01;100.00;96698.06;4970951;28;20137;-75
2022/08/25 08:25:14;;;;;;;17.33;9.10;;;;;;;23.08;100.00;96709.28;4968804;28;20394;-74
2022/08/25 08:27:41;;;;;;;19.30;9.30;;;;;;;23.14;100.00;96697.09;4968944;28;20054;-74
2022/08/25 08:30:08;;;;;;;17.25;8.35;;;;;;;23.15;100.00;96692.44;4970835;28;20476;-74
2022/08/25 08:32:34;;;;;;;22.20;8.75;;;;;;;23.19;100.00;96696.09;4967860;28;20159;-74
2022/08/25 08:34:59;;;;;;;17.13;8.60;;;;;;;23.26;100.00;96702.69;4970812;28;20527;-75
2022/08/25 08:37:25;;;;;;;15.13;7.68;;;;;;;23.30;100.00;96692.72;4967068;28;20562;-75
2022/08/25 08:39:51;;;;;;;17.55;7.90;;;;;;;23.24;100.00;96698.69;4969673;28;20046;-74
2022/08/25 08:42:41;;;;;;;11.65;7.05;;;;;;;23.25;100.00;96692.09;4969559;28;20100;-74
2022/08/25 08:45:07;;;;;;;14.38;8.07;;;;;;;23.35;100.00;96689.03;4973402;28;20050;-74
2022/08/25 08:47:54;;;;;;;33.70;8.80;;;;;;;23.62;100.00;96687.84;4967157;28;20385;-75
2022/08/25 08:50:33;;;;;;;14.07;7.97;;;;;;;23.83;100.00;96685.19;4966129;28;20577;-75
2022/08/25 08:53:13;;;;;;;17.65;7.13;;;;;;;23.95;100.00;96679.03;4968353;28;20046;-74
2022/08/25 08:55:56;;;;;;;15.35;7.40;;;;;;;23.78;99.34;96671.72;4968042;28;20043;-75
2022/08/25 08:58:40;;;;;;;12.80;6.78;;;;;;;23.86;99.26;96676.34;4969676;28;20130;-75
2022/08/25 09:01:08;;;;;;;14.00;7.45;;;;;;;23.96;100.00;96681.41;4944853;28;20120;-74
2022/08/25 09:03:38;;;;;;;13.80;6.93;;;;;;;23.97;97.50;96668.56;4964061;28;20572;-75
2022/08/25 09:06:23;;;;;;;15.77;7.00;;;;;;;24.11;99.24;96661.72;4968904;28;20468;-75
2022/08/25 09:08:48;;;;;;;17.17;6.80;;;;;;;24.40;97.17;96668.34;4967960;28;20042;-75
2022/08/25 09:11:28;;;;;;;14.23;7.72;;;;;;;24.33;97.86;96660.66;4968937;28;20076;-75
2022/08/25 09:14:11;;;;;;;14.30;7.25;;;;;;;24.23;95.52;96669.22;4968083;28;20061;-75
2022/08/25 09:16:55;;;;;;;16.08;6.78;;;;;;;24.19;98.22;96671.81;4966709;28;20105;-75
2022/08/25 09:20:08;;;;;;;14.85;7.60;;;;;;;24.40;96.29;96677.34;4967492;28;20053;-75
2022/08/25 09:22:42;;;;;;;25.35;7.45;;;;;;;24.48;97.48;96670.22;4965978;28;20062;-75
2022/08/25 09:25:33;;;;;;;17.25;7.63;;;;;;;24.48;96.03;96666.69;4967141;28;20501;-75
2022/08/25 09:28:07;;;;;;;14.95;7.35;;;;;;;24.76;94.04;96665.03;4968984;28;20117;-74
2022/08/25 09:30:58;;;;;;;17.65;7.97;;;;;;;25.15;92.73;96660.97;4969373;28;20050;-74
2022/08/25 09:33:26;;;;;;;12.55;5.85;;;;;;;24.97;91.58;96654.03;4968481;28;20061;-75
2022/08/25 09:35:53;;;;;;;33.47;9.50;;;;;;;25.13;91.49;96652.28;4969640;28;20038;-75
2022/08/25 09:38:19;;;;;;;14.38;7.28;;;;;;;25.08;90.27;96644.31;4968703;28;20779;-75
2022/08/25 09:40:49;;;;;;;14.48;7.60;;;;;;;25.07;91.92;96650.91;4968390;28;20038;-75
2022/08/25 09:43:31;;;;;;;23.40;8.15;;;;;;;25.26;90.60;96633.97;4967248;28;20047;-75
2022/08/25 09:46:01;;;;;;;18.23;7.95;;;;;;;25.45;90.15;96617.00;4972113;28;20149;-75
2022/08/25 09:48:43;;;;;;;20.35;8.18;;;;;;;25.53;90.13;96621.59;4968120;28;20034;-75
2022/08/25 09:51:18;;;;;;;13.75;7.68;;;;;;;25.73;88.30;96620.69;4968364;28;20108;-75
2022/08/25 09:53:50;;;;;;;13.20;6.63;;;;;;;25.94;86.13;96601.41;4967725;28;20299;-74
2022/08/25 09:56:20;;;;;;;12.57;7.50;;;;;;;26.25;80.35;96619.19;4981789;28;20608;-74
2022/08/25 09:58:45;;;;;;;17.45;7.45;;;;;;;25.98;83.31;96610.50;4969696;28;20125;-74
2022/08/25 10:01:18;;;;;;;15.65;7.05;;;;;;;26.31;82.41;96607.63;4939021;28;20060;-74
2022/08/25 10:04:01;;;;;;;13.77;6.50;;;;;;;26.39;75.20;96608.66;4962013;28;20046;-74
2022/08/25 10:06:36;;;;;;;12.13;5.50;;;;;;;26.74;76.13;96595.16;4967720;28;21181;-74
2022/08/25 10:09:07;;;;;;;13.93;6.53;;;;;;;26.94;75.68;96601.59;4970357;28;20046;-74
2022/08/25 10:11:37;;;;;;;14.65;7.15;;;;;;;26.84;74.98;96611.13;4971073;28;20073;-74
2022/08/25 10:14:24;;;;;;;11.73;5.45;;;;;;;26.54;71.74;96609.88;4971458;28;20077;-74
2022/08/25 10:16:52;;;;;;;13.52;6.07;;;;;;;26.40;75.21;96591.06;4967443;28;20046;-74
2022/08/25 10:19:20;;;;;;;16.48;7.05;;;;;;;26.29;77.40;96593.44;4969886;28;20054;-75
2022/08/25 10:22:02;;;;;;;16.90;7.00;;;;;;;26.86;77.79;96589.63;4966685;28;20077;-74
2022/08/25 10:24:27;;;;;;;15.57;6.45;;;;;;;27.22;72.68;96587.84;4968149;28;20525;-74
2022/08/25 10:27:19;;;;;;;14.35;5.50;;;;;;;27.33;61.65;96585.38;4621739;28;10000666;-74
2022/08/25 10:30:12;;;;;;;11.98;5.32;;;;;;;26.97;65.50;96581.66;4623944;28;10001250;-74
2022/08/25 10:33:01;;;;;;;14.30;6.70;;;;;;;27.28;70.27;96583.69;4963541;28;20046;-75
2022/08/25 10:36:02;;;;;;;13.33;6.37;;;;;;;27.90;69.04;96582.09;4965047;28;20042;-75
2022/08/25 10:38:36;;;;;;;14.75;6.32;;;;;;;28.41;63.30;96582.06;4958663;28;20286;-75
2022/08/25 10:41:04;;;;;;;15.65;6.93;;;;;;;28.65;61.88;96575.50;4966067;28;20049;-75
2022/08/25 10:43:48;;;;;;;13.60;7.70;;;;;;;28.73;63.99;96573.66;4968221;28;20057;-75
2022/08/25 10:46:42;;;;;;;17.90;8.27;;;;;;;28.86;61.81;96572.34;4969650;28;20042;-75
2022/08/25 10:49:17;;;;;;;13.38;7.47;;;;;;;29.29;56.82;96571.19;4968548;28;20703;-75
2022/08/25 10:51:54;;;;;;;12.32;7.03;;;;;;;29.63;52.88;96568.63;4967934;28;20069;-75
2022/08/25 10:54:48;;;;;;;13.02;6.93;;;;;;;30.65;45.56;96571.25;4969190;28;20685;-76
2022/08/25 10:57:26;;;;;;;16.30;7.18;;;;;;;31.21;42.85;96567.59;4968623;28;20164;-76
2022/08/25 10:59:57;;;;;;;14.13;7.63;;;;;;;32.79;38.21;96552.88;4970044;28;20049;-76
2022/08/25 11:02:46;;;;;;;14.63;7.85;;;;;;;34.00;35.27;96556.59;4939550;28;20392;-76
2022/08/25 11:05:24;;;;;;;15.20;6.93;;;;;;;35.80;30.63;96558.13;4971250;28;20050;-76
2022/08/25 11:08:15;;;;;;;14.43;6.35;;;;;;;35.64;29.70;96550.31;4984065;28;20057;-76
2022/08/25 11:10:46;;;;;;;9.95;6.15;;;;;;;37.38;28.07;96552.31;4988890;28;20073;-76
2022/08/25 11:13:24;;;;;;;19.60;6.75;;;;;;;38.89;26.46;96538.00;4967223;28;20553;-74
2022/08/25 11:15:54;;;;;;;13.48;7.15;;;;;;;38.01;27.14;96554.47;4969499;28;20050;-74
2022/08/25 11:18:21;;;;;;;16.17;7.15;;;;;;;38.17;27.06;96546.19;4967235;28;20046;-74
2022/08/25 11:21:06;;;;;;;18.63;8.15;;;;;;;39.18;26.92;96548.56;4967410;28;20051;-74
2022/08/25 11:23:45;;;;;;;16.92;6.50;;;;;;;39.92;23.81;96537.56;4968606;28;20844;-74
2022/08/25 11:26:14;;;;;;;16.42;7.47;;;;;;;37.74;26.16;96544.13;4966386;28;20043;-74
2022/08/25 11:29:23;;;;;;;11.07;6.53;;;;;;;37.99;26.21;96540.16;4965880;28;20494;-74
2022/08/25 11:31:52;;;;;;;15.60;7.30;;;;;;;41.18;24.22;96535.66;4972461;28;20142;-74
2022/08/25 11:34:19;;;;;;;15.25;8.00;;;;;;;42.18;22.04;96532.41;4971585;28;20081;-74